sensor_id;sensor_type;location;lat;lon;timestamp;P1;durP1;ratioP1;P2;durP2;ratioP2
49998;SDS011;68071;45.062;7.356;2023-07-31T00:02:12;1.90;;;1.30;;
49998;SDS011;68071;45.062;7.356;2023-07-31T00:05:16;2.83;;;1.60;;
49998;SDS011;68071;45.062;7.356;2023-07-31T00:08:20;2.97;;;1.60;;
49998;SDS011;68071;45.062;7.356;2023-07-31T00:11:24;2.08;;;1.30;;
49998;SDS011;68071;45.062;7.356;2023-07-31T00:14:28;1.98;;;1.48;;
49998;SDS011;68071;45.062;7.356;2023-07-31T00:17:49;2.50;;;1.40;;
49998;SDS011;68071;45.062;7.356;2023-07-31T00:20:53;1.92;;;1.38;;
49998;SDS011;68071;45.062;7.356;2023-07-31T00:23:57;1.70;;;1.13;;
49998;SDS011;68071;45.062;7.356;2023-07-31T00:27:01;2.17;;;1.45;;
49998;SDS011;68071;45.062;7.356;2023-07-31T00:30:05;3.63;;;1.55;;
49998;SDS011;68071;45.062;7.356;2023-07-31T00:33:10;2.03;;;1.60;;
49998;SDS011;68071;45.062;7.356;2023-07-31T00:36:14;2.47;;;1.88;;
49998;SDS011;68071;45.062;7.356;2023-07-31T00:39:20;1.83;;;1.60;;
49998;SDS011;68071;45.062;7.356;2023-07-31T00:42:24;1.80;;;1.40;;
49998;SDS011;68071;45.062;7.356;2023-07-31T00:45:28;2.03;;;1.70;;
49998;SDS011;68071;45.062;7.356;2023-07-31T00:48:32;1.95;;;1.40;;
49998;SDS011;68071;45.062;7.356;2023-07-31T00:51:37;1.63;;;1.30;;
49998;SDS011;68071;45.062;7.356;2023-07-31T00:54:41;2.28;;;1.77;;
49998;SDS011;68071;45.062;7.356;2023-07-31T00:57:45;2.47;;;1.60;;
49998;SDS011;68071;45.062;7.356;2023-07-31T01:00:49;2.13;;;1.42;;
49998;SDS011;68071;45.062;7.356;2023-07-31T01:03:53;2.20;;;1.60;;
49998;SDS011;68071;45.062;7.356;2023-07-31T01:10:34;2.25;;;1.52;;
49998;SDS011;68071;45.062;7.356;2023-07-31T01:13:44;2.25;;;1.50;;
49998;SDS011;68071;45.062;7.356;2023-07-31T01:16:49;2.65;;;1.45;;
49998;SDS011;68071;45.062;7.356;2023-07-31T01:19:54;2.33;;;1.40;;
49998;SDS011;68071;45.062;7.356;2023-07-31T01:26:29;2.00;;;1.50;;
49998;SDS011;68071;45.062;7.356;2023-07-31T01:29:40;2.22;;;1.23;;
49998;SDS011;68071;45.062;7.356;2023-07-31T01:32:49;1.70;;;1.35;;
49998;SDS011;68071;45.062;7.356;2023-07-31T01:35:57;2.17;;;1.30;;
49998;SDS011;68071;45.062;7.356;2023-07-31T01:39:01;1.70;;;1.33;;
49998;SDS011;68071;45.062;7.356;2023-07-31T01:42:06;2.13;;;1.40;;
49998;SDS011;68071;45.062;7.356;2023-07-31T01:45:11;2.33;;;1.40;;
49998;SDS011;68071;45.062;7.356;2023-07-31T01:48:16;2.20;;;1.43;;
49998;SDS011;68071;45.062;7.356;2023-07-31T01:51:20;2.15;;;1.38;;
49998;SDS011;68071;45.062;7.356;2023-07-31T01:54:23;1.88;;;1.20;;
49998;SDS011;68071;45.062;7.356;2023-07-31T01:57:27;1.85;;;1.33;;
49998;SDS011;68071;45.062;7.356;2023-07-31T02:00:31;2.63;;;1.42;;
49998;SDS011;68071;45.062;7.356;2023-07-31T02:03:35;2.10;;;1.50;;
49998;SDS011;68071;45.062;7.356;2023-07-31T02:06:39;1.90;;;1.20;;
49998;SDS011;68071;45.062;7.356;2023-07-31T02:09:43;2.20;;;1.67;;
49998;SDS011;68071;45.062;7.356;2023-07-31T02:12:47;1.75;;;1.25;;
49998;SDS011;68071;45.062;7.356;2023-07-31T02:15:51;2.08;;;1.55;;
49998;SDS011;68071;45.062;7.356;2023-07-31T02:18:55;2.13;;;1.50;;
49998;SDS011;68071;45.062;7.356;2023-07-31T02:21:59;1.67;;;1.30;;
49998;SDS011;68071;45.062;7.356;2023-07-31T02:25:03;2.53;;;1.40;;
49998;SDS011;68071;45.062;7.356;2023-07-31T02:28:07;1.35;;;1.13;;
49998;SDS011;68071;45.062;7.356;2023-07-31T02:31:11;1.95;;;1.48;;
49998;SDS011;68071;45.062;7.356;2023-07-31T02:34:15;2.53;;;1.42;;
49998;SDS011;68071;45.062;7.356;2023-07-31T02:37:19;2.45;;;1.73;;
49998;SDS011;68071;45.062;7.356;2023-07-31T02:40:23;2.50;;;1.60;;
49998;SDS011;68071;45.062;7.356;2023-07-31T02:43:28;2.63;;;1.45;;
49998;SDS011;68071;45.062;7.356;2023-07-31T02:46:32;2.22;;;1.73;;
49998;SDS011;68071;45.062;7.356;2023-07-31T02:49:35;2.63;;;1.55;;
49998;SDS011;68071;45.062;7.356;2023-07-31T02:52:40;2.60;;;1.60;;
49998;SDS011;68071;45.062;7.356;2023-07-31T02:55:43;2.50;;;1.60;;
49998;SDS011;68071;45.062;7.356;2023-07-31T02:58:47;1.70;;;1.48;;
49998;SDS011;68071;45.062;7.356;2023-07-31T03:01:51;2.00;;;1.40;;
49998;SDS011;68071;45.062;7.356;2023-07-31T03:04:55;2.00;;;1.58;;
49998;SDS011;68071;45.062;7.356;2023-07-31T03:07:59;2.05;;;1.27;;
49998;SDS011;68071;45.062;7.356;2023-07-31T03:11:02;1.80;;;1.40;;
49998;SDS011;68071;45.062;7.356;2023-07-31T03:14:06;2.42;;;1.80;;
49998;SDS011;68071;45.062;7.356;2023-07-31T03:17:10;2.08;;;1.38;;
49998;SDS011;68071;45.062;7.356;2023-07-31T03:20:14;2.08;;;1.52;;
49998;SDS011;68071;45.062;7.356;2023-07-31T03:23:19;2.42;;;1.83;;
49998;SDS011;68071;45.062;7.356;2023-07-31T03:26:23;2.10;;;1.60;;
49998;SDS011;68071;45.062;7.356;2023-07-31T03:29:26;1.90;;;1.65;;
49998;SDS011;68071;45.062;7.356;2023-07-31T03:32:30;2.72;;;1.83;;
49998;SDS011;68071;45.062;7.356;2023-07-31T03:35:34;2.55;;;1.90;;
49998;SDS011;68071;45.062;7.356;2023-07-31T03:38:39;3.20;;;1.77;;
49998;SDS011;68071;45.062;7.356;2023-07-31T03:41:44;3.72;;;2.22;;
49998;SDS011;68071;45.062;7.356;2023-07-31T03:44:48;1.83;;;1.50;;
49998;SDS011;68071;45.062;7.356;2023-07-31T03:47:52;2.78;;;1.90;;
49998;SDS011;68071;45.062;7.356;2023-07-31T03:50:58;2.08;;;1.77;;
49998;SDS011;68071;45.062;7.356;2023-07-31T03:54:02;1.92;;;1.70;;
49998;SDS011;68071;45.062;7.356;2023-07-31T03:57:05;2.58;;;1.70;;
49998;SDS011;68071;45.062;7.356;2023-07-31T04:00:09;2.13;;;1.42;;
49998;SDS011;68071;45.062;7.356;2023-07-31T04:03:18;1.90;;;1.48;;
49998;SDS011;68071;45.062;7.356;2023-07-31T04:06:22;2.42;;;1.73;;
49998;SDS011;68071;45.062;7.356;2023-07-31T04:09:26;2.85;;;1.70;;
49998;SDS011;68071;45.062;7.356;2023-07-31T04:12:30;1.80;;;1.50;;
49998;SDS011;68071;45.062;7.356;2023-07-31T04:15:33;2.08;;;1.35;;
49998;SDS011;68071;45.062;7.356;2023-07-31T04:18:37;1.90;;;1.60;;
49998;SDS011;68071;45.062;7.356;2023-07-31T04:21:42;3.10;;;1.90;;
49998;SDS011;68071;45.062;7.356;2023-07-31T04:24:46;2.73;;;1.60;;
49998;SDS011;68071;45.062;7.356;2023-07-31T04:27:50;2.22;;;1.70;;
49998;SDS011;68071;45.062;7.356;2023-07-31T04:30:54;2.10;;;1.80;;
49998;SDS011;68071;45.062;7.356;2023-07-31T04:33:58;1.90;;;1.63;;
49998;SDS011;68071;45.062;7.356;2023-07-31T04:37:02;2.45;;;1.52;;
49998;SDS011;68071;45.062;7.356;2023-07-31T04:40:06;2.13;;;1.83;;
49998;SDS011;68071;45.062;7.356;2023-07-31T04:43:11;3.28;;;1.92;;
49998;SDS011;68071;45.062;7.356;2023-07-31T04:46:15;3.25;;;2.10;;
49998;SDS011;68071;45.062;7.356;2023-07-31T04:49:19;2.55;;;1.70;;
49998;SDS011;68071;45.062;7.356;2023-07-31T04:52:23;2.60;;;2.00;;
49998;SDS011;68071;45.062;7.356;2023-07-31T04:55:27;2.47;;;2.05;;
49998;SDS011;68071;45.062;7.356;2023-07-31T04:58:31;2.67;;;2.47;;
49998;SDS011;68071;45.062;7.356;2023-07-31T05:01:35;2.80;;;2.35;;
49998;SDS011;68071;45.062;7.356;2023-07-31T05:04:39;3.03;;;2.15;;
49998;SDS011;68071;45.062;7.356;2023-07-31T05:07:43;2.95;;;2.25;;
49998;SDS011;68071;45.062;7.356;2023-07-31T05:10:47;3.72;;;2.33;;
49998;SDS011;68071;45.062;7.356;2023-07-31T05:13:52;2.47;;;2.28;;
49998;SDS011;68071;45.062;7.356;2023-07-31T05:16:56;2.70;;;2.50;;
49998;SDS011;68071;45.062;7.356;2023-07-31T05:20:00;3.38;;;2.40;;
49998;SDS011;68071;45.062;7.356;2023-07-31T05:23:04;3.05;;;2.75;;
49998;SDS011;68071;45.062;7.356;2023-07-31T05:26:08;3.05;;;2.63;;
49998;SDS011;68071;45.062;7.356;2023-07-31T05:32:17;4.55;;;3.47;;
49998;SDS011;68071;45.062;7.356;2023-07-31T05:35:21;3.03;;;2.78;;
49998;SDS011;68071;45.062;7.356;2023-07-31T05:38:25;2.72;;;2.45;;
49998;SDS011;68071;45.062;7.356;2023-07-31T05:41:29;4.60;;;3.30;;
49998;SDS011;68071;45.062;7.356;2023-07-31T05:44:33;3.28;;;2.42;;
49998;SDS011;68071;45.062;7.356;2023-07-31T05:47:38;2.83;;;2.57;;
49998;SDS011;68071;45.062;7.356;2023-07-31T05:50:43;2.97;;;2.45;;
49998;SDS011;68071;45.062;7.356;2023-07-31T05:53:47;2.80;;;2.40;;
49998;SDS011;68071;45.062;7.356;2023-07-31T05:56:51;3.25;;;2.67;;
49998;SDS011;68071;45.062;7.356;2023-07-31T05:59:55;2.55;;;2.17;;
49998;SDS011;68071;45.062;7.356;2023-07-31T06:02:59;4.25;;;2.83;;
49998;SDS011;68071;45.062;7.356;2023-07-31T06:06:03;2.83;;;2.40;;
49998;SDS011;68071;45.062;7.356;2023-07-31T06:09:07;2.33;;;2.10;;
49998;SDS011;68071;45.062;7.356;2023-07-31T06:12:11;3.95;;;2.13;;
49998;SDS011;68071;45.062;7.356;2023-07-31T06:15:14;3.15;;;2.58;;
49998;SDS011;68071;45.062;7.356;2023-07-31T06:18:19;2.97;;;2.67;;
49998;SDS011;68071;45.062;7.356;2023-07-31T06:21:23;3.22;;;2.72;;
49998;SDS011;68071;45.062;7.356;2023-07-31T06:24:27;5.13;;;4.00;;
49998;SDS011;68071;45.062;7.356;2023-07-31T06:27:31;4.00;;;3.60;;
49998;SDS011;68071;45.062;7.356;2023-07-31T06:30:36;3.60;;;3.22;;
49998;SDS011;68071;45.062;7.356;2023-07-31T06:33:40;3.53;;;3.20;;
49998;SDS011;68071;45.062;7.356;2023-07-31T06:36:43;3.50;;;2.65;;
49998;SDS011;68071;45.062;7.356;2023-07-31T06:39:47;3.85;;;2.67;;
49998;SDS011;68071;45.062;7.356;2023-07-31T06:42:51;3.45;;;2.35;;
49998;SDS011;68071;45.062;7.356;2023-07-31T06:45:55;2.53;;;2.30;;
49998;SDS011;68071;45.062;7.356;2023-07-31T06:48:59;4.70;;;2.47;;
49998;SDS011;68071;45.062;7.356;2023-07-31T06:52:03;2.70;;;2.22;;
49998;SDS011;68071;45.062;7.356;2023-07-31T06:55:18;2.83;;;2.00;;
49998;SDS011;68071;45.062;7.356;2023-07-31T07:01:27;3.05;;;2.00;;
49998;SDS011;68071;45.062;7.356;2023-07-31T07:04:32;3.40;;;2.00;;
49998;SDS011;68071;45.062;7.356;2023-07-31T07:07:36;2.58;;;1.90;;
49998;SDS011;68071;45.062;7.356;2023-07-31T07:10:40;2.90;;;2.28;;
49998;SDS011;68071;45.062;7.356;2023-07-31T07:13:44;3.47;;;2.30;;
49998;SDS011;68071;45.062;7.356;2023-07-31T07:16:50;2.80;;;2.05;;
49998;SDS011;68071;45.062;7.356;2023-07-31T07:19:55;2.97;;;2.42;;
49998;SDS011;68071;45.062;7.356;2023-07-31T07:22:59;4.40;;;2.70;;
49998;SDS011;68071;45.062;7.356;2023-07-31T07:26:03;2.75;;;2.35;;
49998;SDS011;68071;45.062;7.356;2023-07-31T07:29:08;2.70;;;2.30;;
49998;SDS011;68071;45.062;7.356;2023-07-31T07:32:14;3.55;;;2.35;;
49998;SDS011;68071;45.062;7.356;2023-07-31T07:35:18;4.67;;;2.63;;
49998;SDS011;68071;45.062;7.356;2023-07-31T07:38:22;3.40;;;2.72;;
49998;SDS011;68071;45.062;7.356;2023-07-31T07:41:26;2.65;;;2.20;;
49998;SDS011;68071;45.062;7.356;2023-07-31T07:44:31;2.60;;;2.33;;
49998;SDS011;68071;45.062;7.356;2023-07-31T07:50:39;3.05;;;2.03;;
49998;SDS011;68071;45.062;7.356;2023-07-31T07:53:43;2.40;;;1.83;;
49998;SDS011;68071;45.062;7.356;2023-07-31T07:56:47;1.95;;;1.70;;
49998;SDS011;68071;45.062;7.356;2023-07-31T07:59:51;2.72;;;2.08;;
49998;SDS011;68071;45.062;7.356;2023-07-31T08:02:55;2.88;;;1.98;;
49998;SDS011;68071;45.062;7.356;2023-07-31T08:06:00;2.28;;;1.75;;
49998;SDS011;68071;45.062;7.356;2023-07-31T08:09:05;2.42;;;1.60;;
49998;SDS011;68071;45.062;7.356;2023-07-31T08:12:10;2.50;;;1.90;;
49998;SDS011;68071;45.062;7.356;2023-07-31T08:15:14;2.10;;;1.70;;
49998;SDS011;68071;45.062;7.356;2023-07-31T08:18:19;2.42;;;1.85;;
49998;SDS011;68071;45.062;7.356;2023-07-31T08:21:23;2.58;;;2.10;;
49998;SDS011;68071;45.062;7.356;2023-07-31T08:24:27;3.03;;;2.03;;
49998;SDS011;68071;45.062;7.356;2023-07-31T08:27:32;3.60;;;2.20;;
49998;SDS011;68071;45.062;7.356;2023-07-31T08:30:35;2.88;;;2.20;;
49998;SDS011;68071;45.062;7.356;2023-07-31T08:33:39;2.40;;;2.20;;
49998;SDS011;68071;45.062;7.356;2023-07-31T08:36:44;2.33;;;1.98;;
49998;SDS011;68071;45.062;7.356;2023-07-31T08:39:47;2.45;;;1.92;;
49998;SDS011;68071;45.062;7.356;2023-07-31T08:42:53;3.95;;;2.35;;
49998;SDS011;68071;45.062;7.356;2023-07-31T08:46:00;2.95;;;2.60;;
49998;SDS011;68071;45.062;7.356;2023-07-31T08:49:05;2.33;;;1.83;;
49998;SDS011;68071;45.062;7.356;2023-07-31T08:52:10;3.70;;;3.25;;
49998;SDS011;68071;45.062;7.356;2023-07-31T08:55:14;4.43;;;3.58;;
49998;SDS011;68071;45.062;7.356;2023-07-31T08:58:18;4.70;;;3.28;;
49998;SDS011;68071;45.062;7.356;2023-07-31T09:01:22;4.03;;;3.07;;
49998;SDS011;68071;45.062;7.356;2023-07-31T09:04:27;4.70;;;3.25;;
49998;SDS011;68071;45.062;7.356;2023-07-31T09:07:34;2.70;;;2.50;;
49998;SDS011;68071;45.062;7.356;2023-07-31T09:10:43;3.00;;;2.60;;
49998;SDS011;68071;45.062;7.356;2023-07-31T09:13:49;3.55;;;3.25;;
49998;SDS011;68071;45.062;7.356;2023-07-31T09:16:57;4.88;;;3.30;;
49998;SDS011;68071;45.062;7.356;2023-07-31T09:20:13;4.22;;;3.58;;
49998;SDS011;68071;45.062;7.356;2023-07-31T09:23:24;3.72;;;3.20;;
49998;SDS011;68071;45.062;7.356;2023-07-31T09:26:29;4.22;;;3.83;;
49998;SDS011;68071;45.062;7.356;2023-07-31T09:29:34;4.32;;;3.92;;
49998;SDS011;68071;45.062;7.356;2023-07-31T09:32:38;4.55;;;4.10;;
49998;SDS011;68071;45.062;7.356;2023-07-31T09:35:42;5.38;;;4.88;;
49998;SDS011;68071;45.062;7.356;2023-07-31T09:38:46;4.97;;;4.50;;
49998;SDS011;68071;45.062;7.356;2023-07-31T09:41:54;5.47;;;4.85;;
49998;SDS011;68071;45.062;7.356;2023-07-31T09:45:06;5.15;;;4.72;;
49998;SDS011;68071;45.062;7.356;2023-07-31T09:48:13;5.95;;;5.45;;
49998;SDS011;68071;45.062;7.356;2023-07-31T09:51:26;6.50;;;5.93;;
49998;SDS011;68071;45.062;7.356;2023-07-31T09:54:30;7.28;;;6.57;;
49998;SDS011;68071;45.062;7.356;2023-07-31T09:57:37;7.10;;;5.97;;
49998;SDS011;68071;45.062;7.356;2023-07-31T10:00:45;6.38;;;5.68;;
49998;SDS011;68071;45.062;7.356;2023-07-31T10:03:50;4.85;;;4.30;;
49998;SDS011;68071;45.062;7.356;2023-07-31T10:06:54;6.67;;;5.03;;
49998;SDS011;68071;45.062;7.356;2023-07-31T10:09:59;5.53;;;5.03;;
49998;SDS011;68071;45.062;7.356;2023-07-31T10:13:04;6.55;;;5.50;;
49998;SDS011;68071;45.062;7.356;2023-07-31T10:16:10;5.82;;;4.65;;
49998;SDS011;68071;45.062;7.356;2023-07-31T10:19:15;6.40;;;5.20;;
49998;SDS011;68071;45.062;7.356;2023-07-31T10:22:22;5.03;;;4.60;;
49998;SDS011;68071;45.062;7.356;2023-07-31T10:25:26;6.35;;;5.72;;
49998;SDS011;68071;45.062;7.356;2023-07-31T10:28:30;6.10;;;5.50;;
49998;SDS011;68071;45.062;7.356;2023-07-31T10:31:35;8.18;;;5.53;;
49998;SDS011;68071;45.062;7.356;2023-07-31T10:34:39;6.07;;;5.18;;
49998;SDS011;68071;45.062;7.356;2023-07-31T10:37:44;5.13;;;4.20;;
49998;SDS011;68071;45.062;7.356;2023-07-31T10:40:49;5.55;;;4.47;;
49998;SDS011;68071;45.062;7.356;2023-07-31T10:43:59;5.18;;;4.68;;
49998;SDS011;68071;45.062;7.356;2023-07-31T10:47:04;5.57;;;4.28;;
49998;SDS011;68071;45.062;7.356;2023-07-31T10:50:11;6.43;;;4.32;;
49998;SDS011;68071;45.062;7.356;2023-07-31T10:56:37;4.20;;;3.80;;
49998;SDS011;68071;45.062;7.356;2023-07-31T10:59:41;5.35;;;3.88;;
49998;SDS011;68071;45.062;7.356;2023-07-31T11:06:15;4.15;;;3.72;;
49998;SDS011;68071;45.062;7.356;2023-07-31T11:09:19;4.38;;;3.78;;
49998;SDS011;68071;45.062;7.356;2023-07-31T11:12:23;4.83;;;4.13;;
49998;SDS011;68071;45.062;7.356;2023-07-31T11:15:28;5.20;;;3.80;;
49998;SDS011;68071;45.062;7.356;2023-07-31T11:18:32;4.93;;;3.83;;
49998;SDS011;68071;45.062;7.356;2023-07-31T11:21:36;4.40;;;3.97;;
49998;SDS011;68071;45.062;7.356;2023-07-31T11:24:40;4.82;;;4.25;;
49998;SDS011;68071;45.062;7.356;2023-07-31T11:27:44;5.55;;;4.63;;
49998;SDS011;68071;45.062;7.356;2023-07-31T11:30:48;4.70;;;4.30;;
49998;SDS011;68071;45.062;7.356;2023-07-31T11:34:03;5.13;;;4.70;;
49998;SDS011;68071;45.062;7.356;2023-07-31T11:37:08;5.53;;;4.05;;
49998;SDS011;68071;45.062;7.356;2023-07-31T11:40:12;6.00;;;3.85;;
49998;SDS011;68071;45.062;7.356;2023-07-31T11:43:17;4.40;;;3.55;;
49998;SDS011;68071;45.062;7.356;2023-07-31T11:46:22;5.45;;;4.95;;
49998;SDS011;68071;45.062;7.356;2023-07-31T11:49:25;5.32;;;3.65;;
49998;SDS011;68071;45.062;7.356;2023-07-31T11:52:30;4.10;;;3.70;;
49998;SDS011;68071;45.062;7.356;2023-07-31T11:55:37;4.57;;;4.18;;
49998;SDS011;68071;45.062;7.356;2023-07-31T11:58:41;5.20;;;4.70;;
49998;SDS011;68071;45.062;7.356;2023-07-31T12:01:47;4.82;;;4.32;;
49998;SDS011;68071;45.062;7.356;2023-07-31T12:04:54;4.95;;;4.15;;
49998;SDS011;68071;45.062;7.356;2023-07-31T12:07:57;5.82;;;4.60;;
49998;SDS011;68071;45.062;7.356;2023-07-31T12:11:05;5.68;;;4.32;;
49998;SDS011;68071;45.062;7.356;2023-07-31T12:14:30;5.13;;;4.22;;
49998;SDS011;68071;45.062;7.356;2023-07-31T12:17:34;4.55;;;4.15;;
49998;SDS011;68071;45.062;7.356;2023-07-31T12:23:46;4.93;;;4.05;;
49998;SDS011;68071;45.062;7.356;2023-07-31T12:26:50;5.47;;;4.35;;
49998;SDS011;68071;45.062;7.356;2023-07-31T12:29:55;5.40;;;4.53;;
49998;SDS011;68071;45.062;7.356;2023-07-31T12:33:06;5.00;;;4.13;;
49998;SDS011;68071;45.062;7.356;2023-07-31T12:36:16;4.60;;;4.20;;
49998;SDS011;68071;45.062;7.356;2023-07-31T12:39:21;6.60;;;4.65;;
49998;SDS011;68071;45.062;7.356;2023-07-31T12:42:25;5.28;;;4.07;;
49998;SDS011;68071;45.062;7.356;2023-07-31T12:45:30;5.07;;;4.53;;
49998;SDS011;68071;45.062;7.356;2023-07-31T12:48:35;5.03;;;4.35;;
49998;SDS011;68071;45.062;7.356;2023-07-31T12:51:39;6.40;;;5.03;;
49998;SDS011;68071;45.062;7.356;2023-07-31T12:54:43;5.23;;;4.53;;
49998;SDS011;68071;45.062;7.356;2023-07-31T12:57:47;5.33;;;4.90;;
49998;SDS011;68071;45.062;7.356;2023-07-31T13:00:52;6.00;;;4.78;;
49998;SDS011;68071;45.062;7.356;2023-07-31T13:03:56;5.20;;;4.70;;
49998;SDS011;68071;45.062;7.356;2023-07-31T13:06:59;5.60;;;4.37;;
49998;SDS011;68071;45.062;7.356;2023-07-31T13:10:04;5.30;;;4.70;;
49998;SDS011;68071;45.062;7.356;2023-07-31T13:13:09;6.05;;;4.68;;
49998;SDS011;68071;45.062;7.356;2023-07-31T13:16:14;5.43;;;4.50;;
49998;SDS011;68071;45.062;7.356;2023-07-31T13:19:17;4.70;;;4.30;;
49998;SDS011;68071;45.062;7.356;2023-07-31T13:22:21;5.25;;;4.72;;
49998;SDS011;68071;45.062;7.356;2023-07-31T13:25:25;5.65;;;5.10;;
49998;SDS011;68071;45.062;7.356;2023-07-31T13:28:29;5.28;;;4.78;;
49998;SDS011;68071;45.062;7.356;2023-07-31T13:31:33;6.20;;;4.93;;
49998;SDS011;68071;45.062;7.356;2023-07-31T13:34:37;5.67;;;5.20;;
49998;SDS011;68071;45.062;7.356;2023-07-31T13:37:41;6.05;;;4.95;;
49998;SDS011;68071;45.062;7.356;2023-07-31T13:40:45;5.80;;;5.18;;
49998;SDS011;68071;45.062;7.356;2023-07-31T13:43:49;5.73;;;5.03;;
49998;SDS011;68071;45.062;7.356;2023-07-31T13:46:53;5.47;;;4.97;;
49998;SDS011;68071;45.062;7.356;2023-07-31T13:49:57;6.20;;;5.40;;
49998;SDS011;68071;45.062;7.356;2023-07-31T13:53:01;6.53;;;5.30;;
49998;SDS011;68071;45.062;7.356;2023-07-31T13:56:05;5.43;;;4.93;;
49998;SDS011;68071;45.062;7.356;2023-07-31T13:59:10;5.72;;;5.22;;
49998;SDS011;68071;45.062;7.356;2023-07-31T14:05:18;6.88;;;4.85;;
49998;SDS011;68071;45.062;7.356;2023-07-31T14:08:22;6.15;;;5.03;;
49998;SDS011;68071;45.062;7.356;2023-07-31T14:11:26;5.65;;;4.85;;
49998;SDS011;68071;45.062;7.356;2023-07-31T14:14:30;5.85;;;4.65;;
49998;SDS011;68071;45.062;7.356;2023-07-31T14:17:37;6.53;;;5.93;;
49998;SDS011;68071;45.062;7.356;2023-07-31T14:20:41;6.10;;;5.38;;
49998;SDS011;68071;45.062;7.356;2023-07-31T14:23:45;6.13;;;5.53;;
49998;SDS011;68071;45.062;7.356;2023-07-31T14:26:49;5.95;;;4.75;;
49998;SDS011;68071;45.062;7.356;2023-07-31T14:29:53;5.40;;;4.90;;
49998;SDS011;68071;45.062;7.356;2023-07-31T14:32:57;7.57;;;5.20;;
49998;SDS011;68071;45.062;7.356;2023-07-31T14:36:01;5.57;;;5.10;;
49998;SDS011;68071;45.062;7.356;2023-07-31T14:39:05;5.20;;;4.70;;
49998;SDS011;68071;45.062;7.356;2023-07-31T14:42:09;7.47;;;5.22;;
49998;SDS011;68071;45.062;7.356;2023-07-31T14:45:13;5.87;;;5.37;;
49998;SDS011;68071;45.062;7.356;2023-07-31T14:51:22;5.63;;;5.13;;
49998;SDS011;68071;45.062;7.356;2023-07-31T14:54:25;5.07;;;4.53;;
49998;SDS011;68071;45.062;7.356;2023-07-31T14:57:29;5.15;;;4.68;;
49998;SDS011;68071;45.062;7.356;2023-07-31T15:00:33;5.20;;;4.70;;
49998;SDS011;68071;45.062;7.356;2023-07-31T15:03:38;6.78;;;5.07;;
49998;SDS011;68071;45.062;7.356;2023-07-31T15:06:42;5.40;;;4.90;;
49998;SDS011;68071;45.062;7.356;2023-07-31T15:09:46;5.93;;;5.30;;
49998;SDS011;68071;45.062;7.356;2023-07-31T15:12:49;6.05;;;4.38;;
49998;SDS011;68071;45.062;7.356;2023-07-31T15:15:53;5.30;;;4.53;;
49998;SDS011;68071;45.062;7.356;2023-07-31T15:18:59;5.20;;;4.70;;
49998;SDS011;68071;45.062;7.356;2023-07-31T15:22:03;6.35;;;5.18;;
49998;SDS011;68071;45.062;7.356;2023-07-31T15:25:07;4.50;;;4.10;;
49998;SDS011;68071;45.062;7.356;2023-07-31T15:28:11;5.57;;;5.07;;
49998;SDS011;68071;45.062;7.356;2023-07-31T15:31:15;5.15;;;4.65;;
49998;SDS011;68071;45.062;7.356;2023-07-31T15:34:19;4.78;;;4.38;;
49998;SDS011;68071;45.062;7.356;2023-07-31T15:37:24;5.72;;;4.72;;
49998;SDS011;68071;45.062;7.356;2023-07-31T15:40:28;4.50;;;4.10;;
49998;SDS011;68071;45.062;7.356;2023-07-31T15:43:31;4.50;;;4.07;;
49998;SDS011;68071;45.062;7.356;2023-07-31T15:46:36;5.68;;;5.00;;
49998;SDS011;68071;45.062;7.356;2023-07-31T15:49:40;4.85;;;4.40;;
49998;SDS011;68071;45.062;7.356;2023-07-31T15:52:44;5.32;;;4.93;;
49998;SDS011;68071;45.062;7.356;2023-07-31T15:55:48;5.25;;;4.75;;
49998;SDS011;68071;45.062;7.356;2023-07-31T15:58:52;6.17;;;4.80;;
49998;SDS011;68071;45.062;7.356;2023-07-31T16:01:58;4.65;;;3.88;;
49998;SDS011;68071;45.062;7.356;2023-07-31T16:05:02;5.05;;;4.65;;
49998;SDS011;68071;45.062;7.356;2023-07-31T16:08:07;5.25;;;4.75;;
49998;SDS011;68071;45.062;7.356;2023-07-31T16:11:12;6.07;;;4.70;;
49998;SDS011;68071;45.062;7.356;2023-07-31T16:14:16;5.00;;;4.50;;
49998;SDS011;68071;45.062;7.356;2023-07-31T16:17:20;6.13;;;4.75;;
49998;SDS011;68071;45.062;7.356;2023-07-31T16:20:24;5.13;;;4.63;;
49998;SDS011;68071;45.062;7.356;2023-07-31T16:23:28;4.90;;;4.28;;
49998;SDS011;68071;45.062;7.356;2023-07-31T16:26:32;4.60;;;4.20;;
49998;SDS011;68071;45.062;7.356;2023-07-31T16:29:36;4.50;;;3.80;;
49998;SDS011;68071;45.062;7.356;2023-07-31T16:32:40;4.30;;;3.90;;
49998;SDS011;68071;45.062;7.356;2023-07-31T16:35:44;5.45;;;4.95;;
49998;SDS011;68071;45.062;7.356;2023-07-31T16:38:48;5.18;;;4.68;;
49998;SDS011;68071;45.062;7.356;2023-07-31T16:41:52;5.45;;;4.93;;
49998;SDS011;68071;45.062;7.356;2023-07-31T16:44:56;5.55;;;4.93;;
49998;SDS011;68071;45.062;7.356;2023-07-31T16:48:00;4.88;;;4.47;;
49998;SDS011;68071;45.062;7.356;2023-07-31T16:51:06;5.63;;;4.97;;
49998;SDS011;68071;45.062;7.356;2023-07-31T16:57:14;6.40;;;5.00;;
49998;SDS011;68071;45.062;7.356;2023-07-31T17:00:18;6.23;;;5.70;;
49998;SDS011;68071;45.062;7.356;2023-07-31T17:03:22;5.82;;;5.18;;
49998;SDS011;68071;45.062;7.356;2023-07-31T17:06:26;15.43;;;8.03;;
49998;SDS011;68071;45.062;7.356;2023-07-31T17:09:33;6.65;;;5.95;;
49998;SDS011;68071;45.062;7.356;2023-07-31T17:12:37;11.60;;;7.27;;
49998;SDS011;68071;45.062;7.356;2023-07-31T17:15:41;8.43;;;6.20;;
49998;SDS011;68071;45.062;7.356;2023-07-31T17:18:45;8.63;;;6.22;;
49998;SDS011;68071;45.062;7.356;2023-07-31T17:24:53;26.77;;;13.40;;
49998;SDS011;68071;45.062;7.356;2023-07-31T17:27:57;26.87;;;13.80;;
49998;SDS011;68071;45.062;7.356;2023-07-31T17:31:01;5.87;;;5.23;;
49998;SDS011;68071;45.062;7.356;2023-07-31T17:34:05;7.15;;;5.75;;
49998;SDS011;68071;45.062;7.356;2023-07-31T17:37:09;5.70;;;5.20;;
49998;SDS011;68071;45.062;7.356;2023-07-31T17:40:12;6.63;;;4.93;;
49998;SDS011;68071;45.062;7.356;2023-07-31T17:43:16;6.33;;;5.83;;
49998;SDS011;68071;45.062;7.356;2023-07-31T17:46:20;6.10;;;5.57;;
49998;SDS011;68071;45.062;7.356;2023-07-31T17:49:24;7.00;;;6.30;;
49998;SDS011;68071;45.062;7.356;2023-07-31T17:52:28;6.43;;;5.82;;
49998;SDS011;68071;45.062;7.356;2023-07-31T17:55:32;8.80;;;7.85;;
49998;SDS011;68071;45.062;7.356;2023-07-31T17:58:36;7.15;;;6.45;;
49998;SDS011;68071;45.062;7.356;2023-07-31T18:01:40;7.03;;;6.45;;
49998;SDS011;68071;45.062;7.356;2023-07-31T18:04:44;7.70;;;6.78;;
49998;SDS011;68071;45.062;7.356;2023-07-31T18:07:48;7.30;;;6.60;;
49998;SDS011;68071;45.062;7.356;2023-07-31T18:10:52;6.95;;;6.35;;
49998;SDS011;68071;45.062;7.356;2023-07-31T18:13:56;7.63;;;6.80;;
49998;SDS011;68071;45.062;7.356;2023-07-31T18:20:06;7.40;;;6.75;;
49998;SDS011;68071;45.062;7.356;2023-07-31T18:23:13;6.65;;;6.10;;
49998;SDS011;68071;45.062;7.356;2023-07-31T18:26:17;6.97;;;6.38;;
49998;SDS011;68071;45.062;7.356;2023-07-31T18:29:21;7.20;;;6.50;;
49998;SDS011;68071;45.062;7.356;2023-07-31T18:32:25;7.80;;;7.18;;
49998;SDS011;68071;45.062;7.356;2023-07-31T18:35:29;8.05;;;7.25;;
49998;SDS011;68071;45.062;7.356;2023-07-31T18:38:33;8.32;;;7.53;;
49998;SDS011;68071;45.062;7.356;2023-07-31T18:41:37;7.93;;;7.22;;
49998;SDS011;68071;45.062;7.356;2023-07-31T18:44:43;8.57;;;7.78;;
49998;SDS011;68071;45.062;7.356;2023-07-31T18:47:47;7.47;;;6.78;;
49998;SDS011;68071;45.062;7.356;2023-07-31T18:50:51;7.35;;;6.75;;
49998;SDS011;68071;45.062;7.356;2023-07-31T18:53:55;7.28;;;6.57;;
49998;SDS011;68071;45.062;7.356;2023-07-31T18:56:59;7.17;;;6.47;;
49998;SDS011;68071;45.062;7.356;2023-07-31T19:00:03;7.65;;;6.95;;
49998;SDS011;68071;45.062;7.356;2023-07-31T19:03:09;7.78;;;7.10;;
49998;SDS011;68071;45.062;7.356;2023-07-31T19:06:16;7.35;;;6.68;;
49998;SDS011;68071;45.062;7.356;2023-07-31T19:09:27;7.18;;;6.57;;
49998;SDS011;68071;45.062;7.356;2023-07-31T19:12:36;7.68;;;7.00;;
49998;SDS011;68071;45.062;7.356;2023-07-31T19:15:40;8.13;;;7.30;;